createdAt,value
2022-11-29T00:01:24.184Z,6.90
2022-11-29T00:03:51.819Z,6.90
2022-11-29T00:06:21.262Z,7.00
2022-11-29T00:08:49.189Z,7.00
2022-11-29T00:11:35.865Z,7.00
2022-11-29T00:14:03.128Z,6.90
2022-11-29T00:16:29.980Z,7.00
2022-11-29T00:18:56.764Z,7.00
2022-11-29T00:21:23.482Z,7.00
2022-11-29T00:23:50.493Z,7.00
2022-11-29T00:26:17.653Z,6.90
2022-11-29T00:28:44.577Z,6.80
2022-11-29T00:31:20.050Z,6.80
2022-11-29T00:33:47.036Z,6.80
2022-11-29T00:36:14.689Z,6.90
2022-11-29T00:38:41.817Z,6.90
2022-11-29T00:41:09.294Z,6.90
2022-11-29T00:43:36.353Z,6.90
2022-11-29T00:46:04.013Z,6.80
2022-11-29T00:48:31.674Z,6.80
2022-11-29T00:50:58.617Z,6.80
2022-11-29T00:53:25.308Z,6.80
2022-11-29T00:55:52.932Z,6.90
2022-11-29T00:58:20.879Z,6.90
2022-11-29T01:00:47.841Z,6.90
2022-11-29T01:03:15.295Z,6.90
2022-11-29T01:05:42.963Z,7.00
2022-11-29T01:08:11.032Z,7.00
2022-11-29T01:10:37.942Z,7.00
2022-11-29T01:13:05.199Z,7.00
2022-11-29T01:15:32.236Z,7.10
2022-11-29T01:17:59.392Z,7.00
2022-11-29T01:20:26.785Z,7.00
2022-11-29T01:22:53.897Z,7.00
2022-11-29T01:25:20.822Z,7.00
2022-11-29T01:27:47.899Z,7.00
2022-11-29T01:30:15.111Z,7.00
2022-11-29T01:32:41.852Z,7.00
2022-11-29T01:35:09.020Z,7.00
2022-11-29T01:37:35.817Z,6.90
2022-11-29T01:40:02.937Z,7.00
2022-11-29T01:42:29.676Z,7.00
2022-11-29T01:45:21.094Z,7.00
2022-11-29T01:47:49.232Z,7.00
2022-11-29T01:50:16.445Z,7.00
2022-11-29T01:52:43.846Z,7.00
2022-11-29T01:55:10.912Z,7.00
2022-11-29T01:57:39.994Z,7.00
2022-11-29T02:00:16.923Z,7.00
2022-11-29T02:02:48.819Z,7.00
2022-11-29T02:05:18.549Z,7.00
2022-11-29T02:07:48.794Z,6.90
2022-11-29T02:10:16.628Z,7.00
2022-11-29T02:13:08.332Z,7.00
2022-11-29T02:16:05.065Z,7.00
2022-11-29T02:18:56.929Z,7.00
2022-11-29T02:21:43.502Z,6.90
2022-11-29T02:24:13.768Z,6.90
2022-11-29T02:26:52.439Z,7.00
2022-11-29T02:29:38.679Z,6.90
2022-11-29T02:32:42.966Z,6.90
2022-11-29T02:35:09.668Z,7.00
2022-11-29T02:37:54.903Z,7.00
2022-11-29T02:40:49.028Z,7.00
2022-11-29T02:43:29.963Z,7.00
2022-11-29T02:46:34.159Z,7.00
2022-11-29T02:49:22.387Z,7.00
2022-11-29T02:52:02.049Z,7.00
2022-11-29T02:54:42.810Z,7.10
2022-11-29T02:57:12.489Z,7.10
2022-11-29T03:00:00.795Z,7.00
2022-11-29T03:02:50.190Z,7.00
2022-11-29T03:05:16.975Z,7.00
2022-11-29T03:08:26.023Z,7.00
2022-11-29T03:11:15.814Z,7.00
2022-11-29T03:14:10.913Z,7.10
2022-11-29T03:17:01.753Z,7.00
2022-11-29T03:19:53.388Z,7.00
2022-11-29T03:22:48.083Z,7.00
2022-11-29T03:25:17.792Z,7.00
2022-11-29T03:28:08.011Z,6.90
2022-11-29T03:30:41.003Z,6.90
2022-11-29T03:33:24.708Z,6.90
2022-11-29T03:36:14.115Z,7.00
2022-11-29T03:38:43.919Z,7.00
2022-11-29T03:41:25.618Z,7.00
2022-11-29T03:44:03.727Z,7.00
2022-11-29T03:47:03.483Z,7.00
2022-11-29T03:49:45.997Z,7.00
2022-11-29T03:52:36.339Z,7.00
2022-11-29T03:55:09.152Z,7.00
2022-11-29T03:57:59.243Z,7.00
2022-11-29T04:00:28.788Z,7.00
2022-11-29T04:03:26.324Z,6.90
2022-11-29T04:06:17.046Z,6.90
2022-11-29T04:09:18.769Z,6.90
2022-11-29T04:12:03.941Z,7.00
2022-11-29T04:14:39.791Z,7.00
2022-11-29T04:17:47.780Z,7.00
2022-11-29T04:20:23.115Z,7.00
2022-11-29T04:23:27.312Z,7.00
2022-11-29T04:26:06.028Z,7.00
2022-11-29T04:28:38.480Z,7.00
2022-11-29T04:31:26.285Z,7.00
2022-11-29T04:34:23.803Z,7.00
2022-11-29T04:37:18.650Z,7.00
2022-11-29T04:40:36.761Z,7.10
2022-11-29T04:43:06.185Z,7.10
2022-11-29T04:46:00.875Z,7.10
2022-11-29T04:48:39.567Z,7.20
2022-11-29T04:51:34.002Z,7.10
2022-11-29T04:54:23.138Z,7.20
2022-11-29T04:57:04.391Z,7.10
2022-11-29T04:59:51.473Z,7.10
2022-11-29T05:02:31.880Z,7.00
2022-11-29T05:05:17.547Z,6.90
2022-11-29T05:07:58.202Z,6.90
2022-11-29T05:10:34.069Z,6.80
2022-11-29T05:13:00.730Z,6.90
2022-11-29T05:15:46.026Z,6.80
2022-11-29T05:18:50.169Z,6.80
2022-11-29T05:21:31.894Z,6.80
2022-11-29T05:24:19.533Z,6.90
2022-11-29T05:27:17.163Z,6.90
2022-11-29T05:29:56.619Z,6.90
2022-11-29T05:32:32.745Z,7.00
2022-11-29T05:35:27.293Z,7.00
2022-11-29T05:38:01.176Z,7.00
2022-11-29T05:40:33.741Z,7.00
2022-11-29T05:43:15.518Z,7.00
2022-11-29T05:46:09.451Z,7.00
2022-11-29T05:48:51.003Z,7.10
2022-11-29T05:51:36.631Z,7.10
2022-11-29T05:54:48.066Z,7.10
2022-11-29T05:57:39.989Z,7.10
2022-11-29T06:00:07.565Z,7.20
2022-11-29T06:03:03.416Z,7.10
2022-11-29T06:05:47.117Z,7.10
2022-11-29T06:08:46.113Z,7.20
2022-11-29T06:11:28.288Z,7.10
2022-11-29T06:14:07.594Z,7.10
2022-11-29T06:17:12.395Z,7.10
2022-11-29T06:20:04.342Z,7.00
2022-11-29T06:23:12.142Z,7.00
2022-11-29T06:26:16.867Z,7.10
2022-11-29T06:28:58.648Z,7.00
2022-11-29T06:31:32.061Z,7.10
2022-11-29T06:34:10.482Z,7.00
2022-11-29T06:36:53.706Z,6.90
2022-11-29T06:39:21.132Z,6.90
2022-11-29T06:41:48.846Z,7.00
2022-11-29T06:44:15.937Z,6.90
2022-11-29T06:47:08.581Z,7.00
2022-11-29T06:50:12.465Z,7.10
2022-11-29T06:52:54.543Z,7.00
2022-11-29T06:55:39.278Z,6.80
2022-11-29T06:58:30.308Z,6.80
2022-11-29T07:01:13.521Z,6.80
2022-11-29T07:04:12.322Z,6.60
2022-11-29T07:06:39.399Z,6.70
2022-11-29T07:09:18.442Z,6.80
2022-11-29T07:11:46.743Z,6.70
2022-11-29T07:14:14.499Z,6.70
2022-11-29T07:17:13.099Z,6.60
2022-11-29T07:20:38.273Z,6.70
2022-11-29T07:23:10.911Z,6.70
2022-11-29T07:25:53.767Z,6.60
2022-11-29T07:29:02.287Z,6.70
2022-11-29T07:31:29.036Z,6.70
2022-11-29T07:33:58.843Z,6.70
2022-11-29T07:36:31.483Z,6.70
2022-11-29T07:39:21.092Z,6.80
2022-11-29T07:41:53.846Z,6.80
2022-11-29T07:44:23.641Z,6.90
2022-11-29T07:46:50.434Z,6.80
2022-11-29T07:49:17.189Z,6.80
2022-11-29T07:54:15.363Z,7.00
2022-11-29T07:56:42.049Z,7.00
2022-11-29T07:59:12.808Z,6.90
2022-11-29T08:01:40.234Z,7.00
2022-11-29T08:04:07.864Z,7.10
2022-11-29T08:06:35.074Z,7.00
2022-11-29T08:09:02.284Z,7.00
2022-11-29T08:11:29.034Z,7.10
2022-11-29T08:14:03.420Z,7.10
2022-11-29T08:16:30.263Z,7.00
2022-11-29T08:18:57.045Z,7.10
2022-11-29T08:21:24.011Z,7.10
2022-11-29T08:23:51.166Z,7.10
2022-11-29T08:26:19.629Z,7.10
2022-11-29T08:28:51.687Z,7.00
2022-11-29T08:31:19.742Z,7.10
2022-11-29T08:33:46.813Z,7.10
2022-11-29T08:36:17.100Z,7.00
2022-11-29T08:38:44.176Z,7.10
2022-11-29T08:41:14.049Z,7.20
2022-11-29T08:43:41.086Z,7.30
2022-11-29T08:46:09.127Z,7.20
2022-11-29T08:48:38.147Z,7.30
2022-11-29T08:51:06.693Z,7.40
2022-11-29T08:53:42.186Z,7.20
2022-11-29T08:59:07.510Z,7.10
2022-11-29T09:01:34.402Z,7.30
2022-11-29T09:04:05.090Z,7.30
2022-11-29T09:06:41.319Z,7.30
2022-11-29T09:11:35.991Z,7.40
2022-11-29T09:14:06.092Z,7.40
2022-11-29T09:16:35.365Z,7.00
2022-11-29T09:19:03.242Z,7.10
2022-11-29T09:21:32.139Z,7.30
2022-11-29T09:24:00.759Z,7.20
2022-11-29T09:26:30.491Z,7.30
2022-11-29T09:29:01.212Z,7.40
2022-11-29T09:31:29.622Z,7.40
2022-11-29T09:33:57.064Z,7.40
2022-11-29T09:36:28.547Z,7.40
2022-11-29T09:38:56.350Z,7.40
2022-11-29T09:41:48.384Z,7.40
2022-11-29T09:44:34.398Z,7.50
2022-11-29T09:47:08.689Z,7.60
2022-11-29T09:49:44.616Z,7.60
2022-11-29T09:52:20.354Z,7.60
2022-11-29T09:55:02.850Z,7.70
2022-11-29T09:57:31.413Z,7.70
2022-11-29T10:00:03.295Z,7.70
2022-11-29T10:02:37.977Z,7.80
2022-11-29T10:05:16.449Z,7.90
2022-11-29T10:08:07.258Z,7.90
2022-11-29T10:10:46.282Z,8.00
2022-11-29T10:13:19.961Z,7.90
2022-11-29T10:15:52.930Z,7.90
2022-11-29T10:18:24.407Z,8.00
2022-11-29T10:20:54.620Z,8.00
2022-11-29T10:23:38.997Z,8.00
2022-11-29T10:26:08.075Z,8.00
2022-11-29T10:28:36.968Z,7.90
2022-11-29T10:31:21.365Z,7.90
2022-11-29T10:33:49.273Z,7.90
2022-11-29T10:36:42.807Z,8.00
2022-11-29T10:39:21.627Z,8.00
2022-11-29T10:41:55.549Z,8.10
2022-11-29T10:44:23.377Z,8.10
2022-11-29T10:46:50.498Z,8.20
2022-11-29T10:49:20.575Z,8.20
2022-11-29T10:51:47.629Z,8.20
2022-11-29T10:54:18.443Z,8.30
2022-11-29T10:56:45.809Z,8.30
2022-11-29T10:59:26.412Z,8.30
2022-11-29T11:01:53.841Z,8.30
2022-11-29T11:04:37.193Z,8.30
2022-11-29T11:07:06.189Z,8.30
2022-11-29T11:09:35.671Z,8.30
2022-11-29T11:12:06.497Z,8.40
2022-11-29T11:14:37.545Z,8.40
2022-11-29T11:17:22.545Z,8.40
2022-11-29T11:20:08.717Z,8.20
2022-11-29T11:22:39.757Z,8.20
2022-11-29T11:25:25.406Z,8.20
2022-11-29T11:27:52.422Z,8.30
2022-11-29T11:30:24.962Z,8.20
2022-11-29T11:33:31.328Z,8.20
2022-11-29T11:36:05.352Z,8.20
2022-11-29T11:38:34.183Z,8.20
2022-11-29T11:41:04.311Z,8.30
2022-11-29T11:43:32.152Z,8.40
2022-11-29T11:45:59.200Z,8.50
2022-11-29T11:48:26.388Z,8.50
2022-11-29T11:50:59.345Z,8.40
2022-11-29T11:53:37.426Z,8.40
2022-11-29T11:56:12.312Z,8.30
2022-11-29T11:58:56.630Z,8.30
2022-11-29T12:01:30.269Z,8.30
2022-11-29T12:04:05.594Z,8.40
2022-11-29T12:06:56.385Z,8.40
2022-11-29T12:09:47.335Z,8.50
2022-11-29T12:12:28.982Z,8.50
2022-11-29T12:15:34.292Z,8.60
2022-11-29T12:18:03.015Z,8.60
2022-11-29T12:20:40.648Z,8.60
2022-11-29T12:23:13.816Z,8.70
2022-11-29T12:25:50.872Z,8.70
2022-11-29T12:28:20.836Z,8.80
2022-11-29T12:30:56.842Z,8.70
2022-11-29T12:33:51.014Z,8.80
2022-11-29T12:36:18.492Z,8.70
2022-11-29T12:39:03.690Z,8.60
2022-11-29T12:41:54.389Z,8.60
2022-11-29T12:44:50.587Z,8.60
2022-11-29T12:47:36.083Z,8.60
2022-11-29T12:50:36.322Z,8.60
2022-11-29T12:53:16.748Z,8.60
2022-11-29T12:55:43.816Z,8.50
2022-11-29T12:58:29.544Z,8.50
2022-11-29T13:01:11.611Z,8.50
2022-11-29T13:04:15.423Z,8.50
2022-11-29T13:07:08.280Z,8.40
2022-11-29T13:09:53.700Z,8.40
2022-11-29T13:12:37.769Z,8.40
2022-11-29T13:15:23.350Z,8.50
2022-11-29T13:18:25.218Z,8.50
2022-11-29T13:21:12.169Z,8.50
2022-11-29T13:24:11.147Z,8.50
2022-11-29T13:26:40.088Z,8.60
2022-11-29T13:29:10.335Z,8.50
2022-11-29T13:31:38.991Z,8.50
2022-11-29T13:34:26.928Z,8.50
2022-11-29T13:37:08.045Z,8.50
2022-11-29T13:39:49.991Z,8.50
2022-11-29T13:42:32.151Z,8.50
2022-11-29T13:45:26.899Z,8.40
2022-11-29T13:48:00.012Z,8.50
2022-11-29T13:50:44.471Z,8.60
2022-11-29T13:53:23.628Z,8.60
2022-11-29T13:56:02.785Z,8.40
2022-11-29T13:58:30.735Z,8.50
2022-11-29T14:01:12.057Z,8.50
2022-11-29T14:04:00.569Z,8.40
2022-11-29T14:06:35.977Z,8.50
2022-11-29T14:09:19.263Z,8.50
2022-11-29T14:12:04.715Z,8.60
2022-11-29T14:14:54.620Z,8.60
2022-11-29T14:17:40.221Z,8.50
2022-11-29T14:20:25.424Z,8.60
2022-11-29T14:23:29.504Z,8.50
2022-11-29T14:25:59.399Z,8.30
2022-11-29T14:28:30.826Z,8.30
2022-11-29T14:31:02.569Z,8.30
2022-11-29T14:33:44.441Z,8.40
2022-11-29T14:36:29.646Z,8.20
2022-11-29T14:39:08.011Z,8.30
2022-11-29T14:42:14.672Z,8.40
2022-11-29T14:45:01.082Z,8.40
2022-11-29T14:47:38.992Z,8.50
2022-11-29T14:50:10.471Z,8.60
2022-11-29T14:52:49.953Z,8.50
2022-11-29T14:55:16.707Z,8.40
2022-11-29T14:58:14.776Z,8.60
2022-11-29T15:00:47.716Z,8.60
2022-11-29T15:03:20.574Z,8.50
2022-11-29T15:05:59.520Z,8.50
2022-11-29T15:09:05.004Z,8.40
2022-11-29T15:11:50.345Z,8.40
2022-11-29T15:14:32.172Z,8.40
2022-11-29T15:17:31.164Z,8.50
2022-11-29T15:22:40.118Z,8.40
2022-11-29T15:25:17.535Z,8.50
2022-11-29T15:28:18.510Z,8.50
2022-11-29T15:30:45.404Z,8.40
2022-11-29T15:33:23.486Z,8.60
2022-11-29T15:35:56.463Z,8.50
2022-11-29T15:38:24.439Z,8.50
2022-11-29T15:40:53.673Z,8.50
2022-11-29T15:43:30.398Z,8.50
2022-11-29T15:45:58.181Z,8.60
2022-11-29T15:48:27.553Z,8.50
2022-11-29T15:51:12.802Z,8.40
2022-11-29T15:54:12.688Z,8.40
2022-11-29T15:56:44.872Z,8.50
2022-11-29T15:59:27.675Z,8.50
2022-11-29T16:01:57.330Z,8.40
2022-11-29T16:04:24.738Z,8.40
2022-11-29T16:06:54.521Z,8.40
2022-11-29T16:09:51.429Z,8.50
2022-11-29T16:12:18.758Z,8.40
2022-11-29T16:14:53.024Z,8.40
2022-11-29T16:17:20.987Z,8.40
2022-11-29T16:19:48.134Z,8.40
2022-11-29T16:25:06.689Z,8.30
2022-11-29T16:27:35.339Z,8.40
2022-11-29T16:30:04.348Z,8.30
2022-11-29T16:32:37.872Z,8.40
2022-11-29T16:35:19.261Z,8.40
2022-11-29T16:37:47.003Z,8.50
2022-11-29T16:40:20.156Z,8.50
2022-11-29T16:43:08.421Z,8.30
2022-11-29T16:45:41.467Z,8.40
2022-11-29T16:48:30.339Z,8.50
2022-11-29T16:51:14.904Z,8.50
2022-11-29T16:53:44.074Z,8.50
2022-11-29T16:56:13.189Z,8.60
2022-11-29T16:59:17.129Z,8.70
2022-11-29T17:01:31.781Z,8.70
2022-11-29T17:04:00.136Z,8.70
2022-11-29T17:06:28.958Z,8.60
2022-11-29T17:08:57.334Z,8.60
2022-11-29T17:11:25.326Z,8.60
2022-11-29T17:13:52.816Z,8.80
2022-11-29T17:16:22.335Z,8.70
2022-11-29T17:18:49.871Z,8.60
2022-11-29T17:21:25.019Z,8.60
2022-11-29T17:23:53.463Z,8.50
2022-11-29T17:26:21.481Z,8.60
2022-11-29T17:28:51.883Z,8.50
2022-11-29T17:31:24.115Z,8.40
2022-11-29T17:33:51.418Z,8.40
2022-11-29T17:36:20.641Z,8.30
2022-11-29T17:38:48.231Z,8.20
2022-11-29T17:41:25.333Z,8.30
2022-11-29T17:43:53.996Z,8.40
2022-11-29T17:46:32.377Z,8.30
2022-11-29T17:49:01.016Z,8.20
2022-11-29T17:54:14.886Z,8.30
2022-11-29T17:56:41.679Z,8.30
2022-11-29T17:59:08.507Z,8.40
2022-11-29T18:01:36.120Z,8.30
2022-11-29T18:04:05.566Z,8.30
2022-11-29T18:06:40.590Z,8.30
2022-11-29T18:09:09.678Z,8.40
2022-11-29T18:11:47.520Z,8.30
2022-11-29T18:14:19.054Z,8.20
2022-11-29T18:16:46.127Z,8.10
2022-11-29T18:19:16.328Z,8.20
2022-11-29T18:21:43.314Z,8.30
2022-11-29T18:24:10.743Z,8.30
2022-11-29T18:26:38.324Z,8.20
2022-11-29T18:29:05.857Z,8.20
2022-11-29T18:31:35.950Z,8.10
2022-11-29T18:34:07.067Z,8.20
2022-11-29T18:36:36.645Z,8.10
2022-11-29T18:39:09.162Z,8.10
2022-11-29T18:41:37.211Z,8.00
2022-11-29T18:44:09.157Z,8.10
2022-11-29T18:46:37.471Z,8.10
2022-11-29T18:49:07.040Z,8.10
2022-11-29T18:51:35.067Z,8.00
2022-11-29T18:54:02.267Z,8.10
2022-11-29T18:56:31.392Z,8.10
2022-11-29T18:59:02.309Z,8.30
2022-11-29T19:01:31.879Z,8.00
2022-11-29T19:04:00.369Z,8.10
2022-11-29T19:06:39.043Z,8.20
2022-11-29T19:09:09.715Z,8.00
2022-11-29T19:11:36.603Z,7.80
2022-11-29T19:14:11.024Z,8.00
2022-11-29T19:16:40.192Z,8.10
2022-11-29T19:19:07.519Z,8.00
2022-11-29T19:21:34.795Z,8.00
2022-11-29T19:24:05.349Z,8.00
2022-11-29T19:26:33.629Z,8.00
2022-11-29T19:29:01.482Z,8.10
2022-11-29T19:31:28.827Z,8.10
2022-11-29T19:33:56.751Z,8.20
2022-11-29T19:36:26.794Z,8.10
2022-11-29T19:38:54.622Z,8.00
2022-11-29T19:41:33.136Z,7.90
2022-11-29T19:44:03.475Z,7.90
2022-11-29T19:46:35.987Z,8.00
2022-11-29T19:49:05.148Z,8.10
2022-11-29T19:51:32.491Z,8.10
2022-11-29T19:54:01.791Z,8.10
2022-11-29T19:56:31.357Z,8.20
2022-11-29T19:59:00.010Z,8.20
2022-11-29T20:01:37.862Z,8.30
2022-11-29T20:04:07.457Z,8.10
2022-11-29T20:06:34.591Z,8.10
2022-11-29T20:09:01.907Z,8.20
2022-11-29T20:11:28.908Z,8.30
2022-11-29T20:14:00.923Z,8.20
2022-11-29T20:16:29.580Z,8.20
2022-11-29T20:18:57.856Z,8.20
2022-11-29T20:21:32.396Z,8.20
2022-11-29T20:24:00.697Z,8.10
2022-11-29T20:26:28.853Z,8.10
2022-11-29T20:28:55.827Z,8.20
2022-11-29T20:31:24.060Z,8.20
2022-11-29T20:33:53.927Z,8.30
2022-11-29T20:36:48.442Z,8.30
2022-11-29T20:39:33.826Z,8.20
2022-11-29T20:42:28.651Z,8.30
2022-11-29T20:45:01.036Z,8.30
2022-11-29T20:47:47.389Z,8.30
2022-11-29T20:50:23.565Z,8.40
2022-11-29T20:53:14.911Z,8.40
2022-11-29T20:55:47.725Z,8.30
2022-11-29T20:58:15.730Z,8.30
2022-11-29T21:00:42.692Z,8.40
2022-11-29T21:03:13.672Z,8.40
2022-11-29T21:05:40.508Z,8.50
2022-11-29T21:08:07.405Z,8.40
2022-11-29T21:10:34.576Z,8.50
2022-11-29T21:13:01.749Z,8.50
2022-11-29T21:15:28.938Z,8.50
2022-11-29T21:17:56.004Z,8.50
2022-11-29T21:20:26.314Z,8.50
2022-11-29T21:23:14.046Z,8.50
2022-11-29T21:25:53.318Z,8.50
2022-11-29T21:28:24.574Z,8.50
2022-11-29T21:30:51.655Z,8.50
2022-11-29T21:33:18.636Z,8.60
2022-11-29T21:35:45.455Z,8.60
2022-11-29T21:38:17.269Z,8.60
2022-11-29T21:40:44.027Z,8.60
2022-11-29T21:43:10.792Z,8.60
2022-11-29T21:45:37.676Z,8.60
2022-11-29T21:48:24.998Z,8.60
2022-11-29T21:50:52.003Z,8.60
2022-11-29T21:53:18.763Z,8.60
2022-11-29T21:55:45.725Z,8.60
2022-11-29T21:58:12.496Z,8.60
2022-11-29T22:00:39.241Z,8.60
2022-11-29T22:03:06.069Z,8.60
2022-11-29T22:05:32.870Z,8.50
2022-11-29T22:07:59.727Z,8.40
2022-11-29T22:10:27.935Z,8.50
2022-11-29T22:12:54.705Z,8.40
2022-11-29T22:15:24.869Z,8.40
2022-11-29T22:17:52.302Z,8.50
2022-11-29T22:20:19.612Z,8.50
2022-11-29T22:22:48.437Z,8.50
2022-11-29T22:25:15.778Z,8.50
2022-11-29T22:27:42.858Z,8.50
2022-11-29T22:30:09.948Z,8.40
2022-11-29T22:32:36.670Z,8.40
2022-11-29T22:35:03.633Z,8.40
2022-11-29T22:37:30.382Z,8.40
2022-11-29T22:39:57.618Z,8.50
2022-11-29T22:42:24.460Z,8.50
2022-11-29T22:44:51.146Z,8.40
2022-11-29T22:47:17.868Z,8.40
2022-11-29T22:49:44.609Z,8.30
2022-11-29T22:54:38.418Z,8.30
2022-11-29T22:57:05.302Z,8.20
2022-11-29T22:59:32.039Z,8.20
2022-11-29T23:01:58.839Z,8.20
2022-11-29T23:04:25.583Z,8.20
2022-11-29T23:06:52.395Z,8.10
2022-11-29T23:09:22.342Z,8.20
2022-11-29T23:11:54.086Z,8.20
2022-11-29T23:14:22.268Z,8.20
2022-11-29T23:16:49.207Z,8.20
2022-11-29T23:19:16.478Z,8.20
2022-11-29T23:21:45.625Z,8.30
2022-11-29T23:24:13.050Z,8.20
2022-11-29T23:26:43.372Z,8.20
2022-11-29T23:29:13.432Z,8.30
2022-11-29T23:31:40.941Z,8.20
2022-11-29T23:34:08.114Z,8.10
2022-11-29T23:36:35.047Z,8.00
2022-11-29T23:39:01.841Z,8.10
2022-11-29T23:41:28.600Z,8.10
2022-11-29T23:43:55.394Z,8.10
2022-11-29T23:46:23.943Z,8.00
2022-11-29T23:48:51.520Z,8.00
2022-11-29T23:51:19.094Z,8.10
2022-11-29T23:53:46.803Z,8.20
2022-11-29T23:56:15.586Z,8.10
2022-11-29T23:58:42.775Z,8.00
